Time;durP1;ratioP1;P1;durP2;ratioP2;P2;SDS_P1;SDS_P2;PMS_P1;PMS_P2;Temp;Humidity;BMP_temperature;BMP_pressure;BME280_temperature;BME280_humidity;BME280_pressure;Samples;Min_cycle;Max_cycle;Signal;HPM_P1;HPM_P2
2022/05/01 00:01:38;;;;;;;5.05;3.97;;;;;;;;;;4214161;34;20128;-66
2022/05/01 00:36:25;;;;;;;4.87;4.07;;;;;;;;;;4623592;28;20120;-61
2022/05/01 00:38:02;;;;;;;5.18;4.00;;;;;;;;;;4219297;34;20105;-61
2022/05/01 00:40:28;;;;;;;4.62;4.07;;;;;;;;;;4219866;34;20128;-61
2022/05/01 00:42:54;;;;;;;4.50;3.60;;;;;;;;;;4219730;34;20699;-62
2022/05/01 00:45:20;;;;;;;5.90;3.92;;;;;;;;;;4219630;34;20121;-60
2022/05/01 00:47:46;;;;;;;3.97;3.50;;;;;;;;;;4219863;34;20559;-62
2022/05/01 00:50:12;;;;;;;5.25;3.53;;;;;;;;;;4219568;34;20197;-62
2022/05/01 00:52:39;;;;;;;3.92;3.58;;;;;;;;;;4220106;34;20743;-61
2022/05/01 00:55:05;;;;;;;4.97;3.37;;;;;;;;;;4219882;34;20120;-60
2022/05/01 00:57:31;;;;;;;3.65;3.33;;;;;;;;;;4219785;34;20212;-63
2022/05/01 00:59:58;;;;;;;3.78;3.40;;;;;;;;;;4229800;33;20125;-63
2022/05/01 01:02:23;;;;;;;4.25;3.85;;;;;;;;;;4229637;33;20128;-63
2022/05/01 01:04:50;;;;;;;3.70;3.35;;;;;;;;;;4229703;33;20112;-63
2022/05/01 01:07:15;;;;;;;4.87;3.95;;;;;;;;;;4219624;34;20128;-62
2022/05/01 01:09:41;;;;;;;5.60;3.42;;;;;;;;;;4219434;34;20472;-63
2022/05/01 01:15:09;;;;;;;4.37;3.40;;;;;;;;;;4208713;34;20121;-63
2022/05/01 01:17:43;;;;;;;4.32;3.42;;;;;;;;;;4219590;34;20113;-62
2022/05/01 01:20:18;;;;;;;10.25;3.67;;;;;;;;;;4219322;34;20125;-60
2022/05/01 01:22:46;;;;;;;6.45;3.45;;;;;;;;;;4219329;34;20105;-60
2022/05/01 01:25:12;;;;;;;5.57;3.58;;;;;;;;;;4219506;34;20093;-60
2022/05/01 01:27:38;;;;;;;3.85;3.40;;;;;;;;;;4219201;34;20140;-60
2022/05/01 01:32:50;;;;;;;5.60;3.35;;;;;;;;;;4219562;34;20118;-60
2022/05/01 01:35:18;;;;;;;4.12;3.30;;;;;;;;;;4206364;34;20109;-62
2022/05/01 01:37:45;;;;;;;4.40;2.80;;;;;;;;;;4219165;34;20109;-63
2022/05/01 01:40:14;;;;;;;3.70;3.25;;;;;;;;;;4219078;34;20200;-60
2022/05/01 01:42:40;;;;;;;3.85;3.17;;;;;;;;;;4229791;33;20140;-62
2022/05/01 01:45:07;;;;;;;3.25;2.92;;;;;;;;;;4229303;33;20121;-62
2022/05/01 01:47:33;;;;;;;3.78;3.37;;;;;;;;;;4219468;34;20132;-62
2022/05/01 01:49:59;;;;;;;4.78;3.47;;;;;;;;;;4219077;34;20539;-62
2022/05/01 01:52:25;;;;;;;3.62;3.10;;;;;;;;;;4219011;34;20199;-64
2022/05/01 01:54:51;;;;;;;4.18;3.15;;;;;;;;;;4218995;34;20121;-64
2022/05/01 01:57:17;;;;;;;3.12;2.83;;;;;;;;;;4219394;34;20308;-62
2022/05/01 01:59:43;;;;;;;3.72;3.42;;;;;;;;;;4218972;34;20135;-61
2022/05/01 02:02:09;;;;;;;4.68;3.58;;;;;;;;;;4218890;34;20188;-63
2022/05/01 02:04:35;;;;;;;2.90;2.60;;;;;;;;;;4219019;34;20136;-62
2022/05/01 02:07:01;;;;;;;3.42;2.87;;;;;;;;;;4219339;34;20274;-62
2022/05/01 02:09:30;;;;;;;3.45;3.08;;;;;;;;;;4218959;34;20492;-61
2022/05/01 02:11:57;;;;;;;4.15;3.40;;;;;;;;;;4219007;34;20535;-61
2022/05/01 02:14:23;;;;;;;3.47;2.70;;;;;;;;;;4218863;34;20169;-61
2022/05/01 02:16:50;;;;;;;4.10;3.58;;;;;;;;;;4229430;33;20517;-61
2022/05/01 02:19:16;;;;;;;4.03;3.03;;;;;;;;;;4219108;34;20104;-61
2022/05/01 02:21:42;;;;;;;3.85;3.03;;;;;;;;;;4229045;33;20100;-62
2022/05/01 02:24:09;;;;;;;3.17;2.80;;;;;;;;;;4218884;34;20185;-62
2022/05/01 02:26:36;;;;;;;3.03;2.60;;;;;;;;;;4229055;33;20098;-62
2022/05/01 02:29:04;;;;;;;3.00;2.70;;;;;;;;;;4219047;34;20165;-62
2022/05/01 02:31:30;;;;;;;4.15;2.70;;;;;;;;;;4218786;34;20516;-61
2022/05/01 02:33:56;;;;;;;4.80;3.08;;;;;;;;;;4229073;33;20212;-61
2022/05/01 02:36:22;;;;;;;5.72;3.00;;;;;;;;;;4218562;34;20172;-61
2022/05/01 02:38:49;;;;;;;3.37;2.95;;;;;;;;;;4219024;34;20117;-61
2022/05/01 02:41:16;;;;;;;4.37;2.53;;;;;;;;;;4218648;34;20132;-62
2022/05/01 02:43:42;;;;;;;2.70;2.50;;;;;;;;;;4218526;34;20196;-61
2022/05/01 02:46:08;;;;;;;3.45;2.75;;;;;;;;;;4218685;34;20124;-61
2022/05/01 02:48:34;;;;;;;4.32;2.58;;;;;;;;;;4218604;34;20202;-61
2022/05/01 02:51:01;;;;;;;4.07;2.62;;;;;;;;;;4228739;33;20089;-61
2022/05/01 02:53:27;;;;;;;3.53;2.37;;;;;;;;;;4218587;34;20108;-61
2022/05/01 02:55:53;;;;;;;6.45;2.70;;;;;;;;;;4228969;33;20197;-61
2022/05/01 02:58:19;;;;;;;2.62;2.37;;;;;;;;;;4218478;34;20224;-61
2022/05/01 03:00:45;;;;;;;2.78;2.42;;;;;;;;;;4218576;34;20551;-61
2022/05/01 03:03:11;;;;;;;3.05;2.22;;;;;;;;;;4218505;34;20529;-61
2022/05/01 03:05:37;;;;;;;2.58;2.37;;;;;;;;;;4218386;34;20124;-60
2022/05/01 03:08:03;;;;;;;3.40;2.30;;;;;;;;;;4218590;34;20188;-61
2022/05/01 03:10:29;;;;;;;2.47;2.28;;;;;;;;;;4228699;33;20613;-61
2022/05/01 03:12:55;;;;;;;4.53;2.65;;;;;;;;;;4218558;34;20117;-61
2022/05/01 03:15:24;;;;;;;3.83;2.12;;;;;;;;;;4218298;34;20102;-62
2022/05/01 03:23:19;;;;;;;3.90;2.22;;;;;;;;;;4217905;34;20109;-62
2022/05/01 03:25:45;;;;;;;3.08;2.10;;;;;;;;;;4218441;34;20128;-61
2022/05/01 03:28:11;;;;;;;2.37;2.17;;;;;;;;;;4228534;33;20193;-63
2022/05/01 03:30:37;;;;;;;3.35;2.50;;;;;;;;;;4228274;33;20109;-62
2022/05/01 03:33:05;;;;;;;2.53;2.00;;;;;;;;;;4218509;34;20197;-62
2022/05/01 03:35:31;;;;;;;2.80;2.33;;;;;;;;;;4218114;34;20553;-62
2022/05/01 03:37:58;;;;;;;2.92;2.62;;;;;;;;;;4218059;34;20544;-62
2022/05/01 03:40:24;;;;;;;2.40;2.05;;;;;;;;;;4218050;34;20576;-62
2022/05/01 03:42:49;;;;;;;3.28;2.58;;;;;;;;;;4218294;34;20102;-62
2022/05/01 03:45:15;;;;;;;4.47;2.47;;;;;;;;;;4218008;34;20542;-62
2022/05/01 03:47:42;;;;;;;2.37;2.17;;;;;;;;;;4218027;34;20105;-62
2022/05/01 03:50:08;;;;;;;3.37;2.17;;;;;;;;;;4217516;34;20117;-62
2022/05/01 03:52:34;;;;;;;2.55;2.17;;;;;;;;;;4217987;34;20604;-62
2022/05/01 03:55:00;;;;;;;2.37;2.17;;;;;;;;;;4228190;33;20101;-62
2022/05/01 03:57:27;;;;;;;3.58;2.20;;;;;;;;;;4218258;34;20196;-62
2022/05/01 03:59:53;;;;;;;2.55;2.35;;;;;;;;;;4217915;34;20216;-61
2022/05/01 04:02:19;;;;;;;4.80;2.60;;;;;;;;;;4228253;33;20816;-62
2022/05/01 04:04:46;;;;;;;2.80;2.33;;;;;;;;;;4217893;34;20109;-62
2022/05/01 04:07:12;;;;;;;4.78;2.33;;;;;;;;;;4228183;33;20093;-62
2022/05/01 04:09:38;;;;;;;2.15;1.95;;;;;;;;;;4218173;34;20119;-61
2022/05/01 04:12:07;;;;;;;2.33;2.12;;;;;;;;;;4217944;34;20113;-61
2022/05/01 04:14:34;;;;;;;4.10;2.40;;;;;;;;;;4217746;34;20534;-61
2022/05/01 04:17:00;;;;;;;5.03;2.37;;;;;;;;;;4217800;34;20132;-61
2022/05/01 04:19:29;;;;;;;4.53;2.55;;;;;;;;;;4217946;34;20529;-61
2022/05/01 04:21:55;;;;;;;2.97;2.53;;;;;;;;;;4217687;34;20140;-61
2022/05/01 04:24:21;;;;;;;3.85;2.50;;;;;;;;;;4217710;34;20541;-61
2022/05/01 04:26:47;;;;;;;3.45;2.60;;;;;;;;;;4217642;34;20110;-61
2022/05/01 04:31:58;;;;;;;4.05;2.45;;;;;;;;;;4217541;34;20532;-60
2022/05/01 04:34:23;;;;;;;4.35;2.40;;;;;;;;;;4217463;34;20117;-60
2022/05/01 04:36:49;;;;;;;3.28;2.25;;;;;;;;;;4217666;34;20554;-60
2022/05/01 04:39:15;;;;;;;3.22;2.58;;;;;;;;;;4217872;34;20140;-61
2022/05/01 04:41:41;;;;;;;2.33;2.12;;;;;;;;;;4217335;34;20133;-62
2022/05/01 04:44:07;;;;;;;4.00;2.28;;;;;;;;;;4217493;34;20125;-63
2022/05/01 04:46:33;;;;;;;2.58;2.35;;;;;;;;;;4217410;34;20192;-60
2022/05/01 04:48:59;;;;;;;2.97;2.40;;;;;;;;;;4217778;34;20108;-63
2022/05/01 04:51:26;;;;;;;4.37;2.22;;;;;;;;;;4217614;34;20201;-63
2022/05/01 04:53:52;;;;;;;2.85;2.20;;;;;;;;;;4217622;34;20197;-62
2022/05/01 04:59:02;;;;;;;4.00;2.12;;;;;;;;;;4217472;34;20515;-60
2022/05/01 05:01:28;;;;;;;5.90;2.25;;;;;;;;;;4217099;34;20098;-60
2022/05/01 05:03:54;;;;;;;3.58;1.87;;;;;;;;;;4219413;34;20202;-60
2022/05/01 05:06:23;;;;;;;2.28;2.08;;;;;;;;;;4219402;34;20120;-60
2022/05/01 05:11:46;;;;;;;2.58;1.90;;;;;;;;;;4190969;34;20132;-64
2022/05/01 05:14:12;;;;;;;2.55;1.70;;;;;;;;;;4219369;34;20197;-59
2022/05/01 05:16:40;;;;;;;2.05;1.87;;;;;;;;;;4219247;34;20192;-59
2022/05/01 05:19:06;;;;;;;4.10;2.00;;;;;;;;;;4219279;34;20193;-60
2022/05/01 05:21:32;;;;;;;3.10;2.17;;;;;;;;;;4219011;34;20232;-60
2022/05/01 05:23:58;;;;;;;7.05;1.50;;;;;;;;;;4219344;34;20229;-59
2022/05/01 05:26:24;;;;;;;2.97;2.12;;;;;;;;;;4219324;34;20232;-58
2022/05/01 05:28:50;;;;;;;2.03;1.83;;;;;;;;;;4219291;34;20121;-60
2022/05/01 05:31:16;;;;;;;8.75;2.42;;;;;;;;;;4219142;34;20125;-59
2022/05/01 05:33:42;;;;;;;18.60;3.08;;;;;;;;;;4219413;34;20180;-61
2022/05/01 05:36:08;;;;;;;6.18;1.60;;;;;;;;;;4219159;34;20090;-62
2022/05/01 05:38:35;;;;;;;3.92;1.70;;;;;;;;;;4219098;34;20098;-62
2022/05/01 05:41:01;;;;;;;7.00;1.60;;;;;;;;;;4229242;33;20098;-60
2022/05/01 05:43:27;;;;;;;3.60;1.67;;;;;;;;;;4219467;34;20109;-60
2022/05/01 05:45:52;;;;;;;7.45;1.75;;;;;;;;;;4206430;34;20366;-61
2022/05/01 05:48:18;;;;;;;5.62;1.80;;;;;;;;;;4229592;33;20133;-60
2022/05/01 05:50:44;;;;;;;5.35;1.40;;;;;;;;;;4219290;34;20115;-63
2022/05/01 05:53:10;;;;;;;8.32;2.22;;;;;;;;;;4219101;34;20197;-64
2022/05/01 05:55:36;;;;;;;2.37;1.70;;;;;;;;;;4219146;34;20128;-60
2022/05/01 05:58:03;;;;;;;2.60;1.55;;;;;;;;;;4229365;33;20212;-61
2022/05/01 06:00:28;;;;;;;3.90;1.70;;;;;;;;;;4194300;34;20121;-64
2022/05/01 06:02:54;;;;;;;8.30;1.92;;;;;;;;;;4219370;34;20559;-61
2022/05/01 06:05:20;;;;;;;2.78;1.58;;;;;;;;;;4219009;34;20128;-60
2022/05/01 06:07:46;;;;;;;2.85;1.83;;;;;;;;;;4219136;34;20117;-60
2022/05/01 06:10:12;;;;;;;3.17;1.67;;;;;;;;;;4218981;34;20108;-61
2022/05/01 06:12:42;;;;;;;2.30;2.10;;;;;;;;;;4218826;34;20144;-59
2022/05/01 06:15:09;;;;;;;3.60;1.67;;;;;;;;;;4229190;33;20100;-63
2022/05/01 06:17:35;;;;;;;5.68;2.00;;;;;;;;;;4229188;33;20098;-61
2022/05/01 06:20:01;;;;;;;3.03;1.90;;;;;;;;;;4218823;34;20118;-61
2022/05/01 06:22:27;;;;;;;2.30;1.60;;;;;;;;;;4218813;34;20109;-60
2022/05/01 06:24:53;;;;;;;9.02;1.90;;;;;;;;;;4219014;34;20101;-61
2022/05/01 06:27:19;;;;;;;4.35;1.77;;;;;;;;;;4218850;34;20109;-62
2022/05/01 06:29:45;;;;;;;6.87;1.90;;;;;;;;;;4218945;34;20109;-60
2022/05/01 06:32:11;;;;;;;1.80;1.70;;;;;;;;;;4218804;34;20211;-60
2022/05/01 06:34:38;;;;;;;3.95;1.83;;;;;;;;;;4218625;34;20101;-60
2022/05/01 06:37:04;;;;;;;3.00;1.70;;;;;;;;;;4228999;33;20612;-60
2022/05/01 06:39:30;;;;;;;4.18;1.80;;;;;;;;;;4228947;33;20098;-60
2022/05/01 06:41:56;;;;;;;1.62;1.48;;;;;;;;;;4218414;34;20113;-58
2022/05/01 06:44:22;;;;;;;3.55;1.75;;;;;;;;;;4218898;34;20101;-59
2022/05/01 06:46:48;;;;;;;1.70;1.60;;;;;;;;;;4228847;33;20135;-59
2022/05/01 06:49:14;;;;;;;2.35;1.90;;;;;;;;;;4218845;34;20129;-59
2022/05/01 06:51:40;;;;;;;2.53;1.80;;;;;;;;;;4218418;34;20563;-58
2022/05/01 06:54:08;;;;;;;2.55;1.92;;;;;;;;;;4229029;33;20513;-59
2022/05/01 06:56:34;;;;;;;6.50;1.80;;;;;;;;;;4218347;34;20212;-59
2022/05/01 06:59:01;;;;;;;3.95;1.83;;;;;;;;;;4218473;34;20560;-61
2022/05/01 07:01:27;;;;;;;3.15;2.08;;;;;;;;;;4228648;33;20540;-60
2022/05/01 07:03:53;;;;;;;4.20;1.80;;;;;;;;;;4218579;34;20106;-60
2022/05/01 07:06:19;;;;;;;2.28;1.60;;;;;;;;;;4218543;34;20208;-62
2022/05/01 07:08:45;;;;;;;6.70;2.05;;;;;;;;;;4218575;34;20230;-60
2022/05/01 07:11:11;;;;;;;2.65;1.92;;;;;;;;;;4218359;34;20136;-61
2022/05/01 07:13:40;;;;;;;3.65;1.70;;;;;;;;;;4218408;34;20117;-60
2022/05/01 07:16:06;;;;;;;4.00;1.50;;;;;;;;;;4218121;34;20109;-59
2022/05/01 07:18:32;;;;;;;3.50;2.17;;;;;;;;;;4218360;34;20121;-60
2022/05/01 07:20:59;;;;;;;2.55;1.50;;;;;;;;;;4218259;34;20204;-60
2022/05/01 07:23:26;;;;;;;2.40;2.10;;;;;;;;;;4218230;34;20113;-63
2022/05/01 07:25:52;;;;;;;3.58;1.80;;;;;;;;;;4204615;34;20132;-61
2022/05/01 07:28:18;;;;;;;2.00;1.70;;;;;;;;;;4216141;34;20122;-61
2022/05/01 07:30:44;;;;;;;3.78;1.70;;;;;;;;;;4215955;34;20200;-60
2022/05/01 07:33:10;;;;;;;3.55;1.90;;;;;;;;;;4226179;33;20120;-61
2022/05/01 07:35:37;;;;;;;5.57;2.00;;;;;;;;;;4216004;34;20237;-61
2022/05/01 07:38:03;;;;;;;2.08;1.62;;;;;;;;;;4216102;34;20204;-61
2022/05/01 07:40:29;;;;;;;1.90;1.60;;;;;;;;;;4227138;33;20121;-61
2022/05/01 07:42:55;;;;;;;1.95;1.70;;;;;;;;;;4217906;34;20132;-59
2022/05/01 07:45:21;;;;;;;3.95;1.98;;;;;;;;;;4218120;34;20124;-61
2022/05/01 07:47:47;;;;;;;2.25;1.67;;;;;;;;;;4228358;33;20137;-61
2022/05/01 07:50:14;;;;;;;4.55;1.90;;;;;;;;;;4218614;33;20553;-58
2022/05/01 07:52:40;;;;;;;1.92;1.67;;;;;;;;;;4229854;33;20107;-58
2022/05/01 07:55:07;;;;;;;1.77;1.58;;;;;;;;;;4230492;33;20113;-59
2022/05/01 07:57:33;;;;;;;2.33;1.77;;;;;;;;;;4195883;33;20195;-61
2022/05/01 07:59:59;;;;;;;4.75;2.22;;;;;;;;;;4218081;33;20128;-62
2022/05/01 08:02:34;;;;;;;1.60;1.50;;;;;;;;;;4231994;33;20125;-61
2022/05/01 08:05:00;;;;;;;2.87;1.70;;;;;;;;;;4232062;33;20113;-60
2022/05/01 08:07:26;;;;;;;3.83;1.83;;;;;;;;;;4207242;33;20105;-61
2022/05/01 08:09:52;;;;;;;1.98;1.80;;;;;;;;;;4230977;33;20251;-60
2022/05/01 08:12:18;;;;;;;5.35;1.60;;;;;;;;;;4218638;33;20533;-60
2022/05/01 08:14:45;;;;;;;3.22;1.40;;;;;;;;;;4231484;33;20089;-62
2022/05/01 08:17:11;;;;;;;3.47;1.67;;;;;;;;;;4231079;33;20096;-61
2022/05/01 08:22:22;;;;;;;5.47;1.52;;;;;;;;;;4231606;33;20469;-62
2022/05/01 08:24:48;;;;;;;1.58;1.48;;;;;;;;;;4229043;33;20568;-61
2022/05/01 08:27:14;;;;;;;4.03;1.67;;;;;;;;;;4229353;33;20220;-62
2022/05/01 08:29:40;;;;;;;3.92;1.40;;;;;;;;;;4229747;33;21035;-62
2022/05/01 08:32:07;;;;;;;1.85;1.40;;;;;;;;;;4229226;33;20125;-61
2022/05/01 08:34:33;;;;;;;3.70;1.60;;;;;;;;;;4229733;33;20117;-62
2022/05/01 08:36:59;;;;;;;1.35;1.25;;;;;;;;;;4231004;33;20136;-61
2022/05/01 08:39:25;;;;;;;3.22;1.50;;;;;;;;;;4231817;33;20527;-61
2022/05/01 08:41:51;;;;;;;2.45;1.73;;;;;;;;;;4232015;33;20500;-61
2022/05/01 08:44:26;;;;;;;1.65;1.55;;;;;;;;;;4233422;33;20121;-62
2022/05/01 08:46:52;;;;;;;2.58;1.60;;;;;;;;;;4220747;33;20179;-62
2022/05/01 08:49:18;;;;;;;6.22;1.50;;;;;;;;;;4233508;33;20120;-62
2022/05/01 08:51:44;;;;;;;4.30;1.70;;;;;;;;;;4220219;33;20120;-61
2022/05/01 08:54:10;;;;;;;2.47;1.75;;;;;;;;;;4209264;33;20124;-62
2022/05/01 08:56:37;;;;;;;2.42;1.62;;;;;;;;;;4220181;33;20212;-62
2022/05/01 08:59:05;;;;;;;2.35;1.80;;;;;;;;;;4218168;34;20123;-62
2022/05/01 09:01:35;;;;;;;4.37;1.80;;;;;;;;;;4219967;33;20180;-62
2022/05/01 09:04:02;;;;;;;1.70;1.60;;;;;;;;;;4220690;33;20553;-62
2022/05/01 09:06:28;;;;;;;2.53;1.40;;;;;;;;;;4219955;33;20105;-62
2022/05/01 09:08:56;;;;;;;1.35;1.25;;;;;;;;;;4220454;33;20109;-62
2022/05/01 09:14:07;;;;;;;2.85;1.48;;;;;;;;;;4208708;34;20121;-62
2022/05/01 09:16:36;;;;;;;1.00;1.00;;;;;;;;;;4232463;33;20133;-61
2022/05/01 09:19:02;;;;;;;1.50;1.40;;;;;;;;;;4220540;33;20108;-63
2022/05/01 09:21:51;;;;;;;1.85;1.45;;;;;;;;;;4231222;33;20235;-63
2022/05/01 09:24:27;;;;;;;1.52;1.42;;;;;;;;;;4231247;33;20113;-62
2022/05/01 09:26:54;;;;;;;1.87;1.50;;;;;;;;;;4231437;33;20120;-62
2022/05/01 09:29:24;;;;;;;1.65;1.50;;;;;;;;;;4231663;33;20208;-61
2022/05/01 09:31:50;;;;;;;1.50;1.40;;;;;;;;;;4231482;33;20137;-62
2022/05/01 09:34:28;;;;;;;2.97;1.30;;;;;;;;;;4231552;33;20196;-63
2022/05/01 09:36:54;;;;;;;4.12;2.62;;;;;;;;;;4231592;33;20152;-63
2022/05/01 09:39:23;;;;;;;1.40;1.30;;;;;;;;;;4233397;33;20574;-62
2022/05/01 09:41:50;;;;;;;3.05;1.90;;;;;;;;;;4233205;33;20119;-62
2022/05/01 09:44:17;;;;;;;2.30;1.70;;;;;;;;;;4233139;33;20117;-62
2022/05/01 09:46:47;;;;;;;2.75;1.42;;;;;;;;;;4233037;33;20108;-62
2022/05/01 09:49:14;;;;;;;4.03;1.60;;;;;;;;;;4219624;33;20101;-61
2022/05/01 09:51:53;;;;;;;1.40;1.30;;;;;;;;;;4219969;33;20144;-62
2022/05/01 09:54:26;;;;;;;3.37;1.65;;;;;;;;;;4219970;33;20488;-64
2022/05/01 09:56:54;;;;;;;2.87;1.58;;;;;;;;;;4232941;33;20117;-62
2022/05/01 09:59:22;;;;;;;1.52;1.40;;;;;;;;;;4208607;33;20112;-62
2022/05/01 10:01:57;;;;;;;1.55;1.45;;;;;;;;;;4219905;33;20108;-62
2022/05/01 10:04:24;;;;;;;2.15;1.83;;;;;;;;;;4220053;33;20527;-62
2022/05/01 10:06:54;;;;;;;1.60;1.50;;;;;;;;;;4232891;33;20568;-64
2022/05/01 10:09:23;;;;;;;1.50;1.40;;;;;;;;;;4219913;33;20436;-65
2022/05/01 10:11:52;;;;;;;2.22;1.50;;;;;;;;;;4232994;33;20213;-64
2022/05/01 10:14:22;;;;;;;7.20;1.73;;;;;;;;;;4232873;33;20441;-64
2022/05/01 10:16:49;;;;;;;2.85;1.58;;;;;;;;;;4232911;33;20543;-63
2022/05/01 10:19:17;;;;;;;2.25;1.62;;;;;;;;;;4232929;33;20111;-64
2022/05/01 10:21:47;;;;;;;3.08;2.03;;;;;;;;;;4219754;33;20188;-64
2022/05/01 10:24:18;;;;;;;2.03;1.83;;;;;;;;;;4233065;33;20113;-63
2022/05/01 10:26:57;;;;;;;2.40;1.40;;;;;;;;;;4219963;33;20133;-64
2022/05/01 10:33:19;;;;;;;3.08;1.85;;;;;;;;;;4188917;34;20106;-64
2022/05/01 10:36:08;;;;;;;1.67;1.58;;;;;;;;;;4198981;34;20140;-61
2022/05/01 10:39:02;;;;;;;1.77;1.50;;;;;;;;;;4214640;33;20141;-62
2022/05/01 10:41:29;;;;;;;4.10;1.83;;;;;;;;;;4232690;33;20113;-62
2022/05/01 10:43:56;;;;;;;6.28;2.12;;;;;;;;;;4232896;33;20109;-63
2022/05/01 10:46:22;;;;;;;3.35;1.75;;;;;;;;;;4219572;33;20441;-62
2022/05/01 10:48:48;;;;;;;1.50;1.40;;;;;;;;;;4232585;33;20117;-62
2022/05/01 10:51:38;;;;;;;10.30;2.12;;;;;;;;;;4232528;33;20117;-63
2022/05/01 10:54:10;;;;;;;1.60;1.50;;;;;;;;;;4232705;33;20132;-63
2022/05/01 10:56:40;;;;;;;5.68;1.50;;;;;;;;;;4232907;33;20517;-64
2022/05/01 10:59:34;;;;;;;1.50;1.40;;;;;;;;;;4219132;33;20121;-62
2022/05/01 11:02:05;;;;;;;2.03;1.62;;;;;;;;;;4232603;33;20120;-61
2022/05/01 11:04:40;;;;;;;3.42;1.73;;;;;;;;;;4232745;33;20193;-61
2022/05/01 11:07:10;;;;;;;1.67;1.50;;;;;;;;;;4219304;33;20541;-61
2022/05/01 11:09:37;;;;;;;2.22;1.73;;;;;;;;;;4232656;33;20108;-64
2022/05/01 11:12:09;;;;;;;2.03;1.42;;;;;;;;;;4232289;33;20192;-64
2022/05/01 11:15:00;;;;;;;2.53;1.80;;;;;;;;;;4232510;33;20124;-63
2022/05/01 11:17:36;;;;;;;3.28;1.65;;;;;;;;;;4232407;33;20089;-63
2022/05/01 11:20:13;;;;;;;;;;;;;;;;;;4232814;33;20127;-63
2022/05/01 11:22:45;;;;;;;2.00;1.80;;;;;;;;;;4232662;33;20064;-63
2022/05/01 11:25:16;;;;;;;3.90;1.85;;;;;;;;;;4232397;33;20509;-63
2022/05/01 11:27:49;;;;;;;3.22;1.60;;;;;;;;;;4232216;33;20135;-63
2022/05/01 11:30:38;;;;;;;4.12;2.00;;;;;;;;;;4232199;33;20089;-63
2022/05/01 11:33:08;;;;;;;2.50;1.58;;;;;;;;;;4232143;33;20120;-64
2022/05/01 11:36:02;;;;;;;2.62;1.80;;;;;;;;;;4232107;33;20109;-61
2022/05/01 11:38:50;;;;;;;4.00;1.60;;;;;;;;;;4232315;33;20190;-61
2022/05/01 11:41:39;;;;;;;2.70;2.00;;;;;;;;;;4219304;33;20203;-61
2022/05/01 11:44:23;;;;;;;3.00;1.83;;;;;;;;;;4232188;33;20210;-61
2022/05/01 11:46:51;;;;;;;1.95;1.70;;;;;;;;;;4219147;33;20137;-61
2022/05/01 11:49:17;;;;;;;3.92;2.08;;;;;;;;;;4219177;33;20093;-62
2022/05/01 11:51:45;;;;;;;2.17;1.90;;;;;;;;;;4232298;33;20176;-62
2022/05/01 11:54:11;;;;;;;1.92;1.73;;;;;;;;;;4232026;33;20097;-63
2022/05/01 12:02:24;;;;;;;2.05;1.85;;;;;;;;;;4231920;33;20109;-62
2022/05/01 12:04:50;;;;;;;1.65;1.55;;;;;;;;;;4220166;33;20124;-63
2022/05/01 12:07:21;;;;;;;1.87;1.45;;;;;;;;;;4231858;33;20524;-64
2022/05/01 12:09:48;;;;;;;2.00;1.70;;;;;;;;;;4219585;33;20105;-62
2022/05/01 12:12:17;;;;;;;5.82;1.90;;;;;;;;;;4220111;33;20445;-62
2022/05/01 12:14:44;;;;;;;2.17;1.92;;;;;;;;;;4220873;33;20182;-64
2022/05/01 12:17:15;;;;;;;3.00;1.90;;;;;;;;;;4234048;33;20093;-65
2022/05/01 12:19:46;;;;;;;1.52;1.42;;;;;;;;;;4234007;33;20210;-62
2022/05/01 12:22:14;;;;;;;2.95;2.08;;;;;;;;;;4233824;33;20187;-61
2022/05/01 12:24:41;;;;;;;5.68;2.20;;;;;;;;;;4233807;33;20545;-62
2022/05/01 12:27:08;;;;;;;2.05;1.90;;;;;;;;;;4233964;33;20109;-62
2022/05/01 12:29:36;;;;;;;2.28;1.98;;;;;;;;;;4233742;33;20763;-63
2022/05/01 12:32:06;;;;;;;3.42;1.70;;;;;;;;;;4220884;33;20120;-62
2022/05/01 12:34:52;;;;;;;2.22;1.80;;;;;;;;;;4233727;33;20208;-62
2022/05/01 12:37:32;;;;;;;;;;;;;;;;;;4220821;33;20109;-63
2022/05/01 12:40:10;;;;;;;1.40;1.30;;;;;;;;;;4220731;33;20060;-62
2022/05/01 12:45:41;;;;;;;2.28;2.03;;;;;;;;;;4222572;33;20119;-64
2022/05/01 12:48:09;;;;;;;4.55;2.25;;;;;;;;;;4220548;33;20465;-65
2022/05/01 12:50:37;;;;;;;4.90;1.92;;;;;;;;;;4220502;33;20121;-66
2022/05/01 12:53:22;;;;;;;1.80;1.65;;;;;;;;;;4233638;33;20143;-65
2022/05/01 12:55:48;;;;;;;3.78;2.20;;;;;;;;;;4220328;33;20119;-66
2022/05/01 12:58:14;;;;;;;3.03;1.83;;;;;;;;;;4233841;33;20129;-64
2022/05/01 13:00:42;;;;;;;3.20;2.00;;;;;;;;;;4220413;33;20120;-63
2022/05/01 13:03:16;;;;;;;7.87;1.95;;;;;;;;;;4233426;33;20117;-62
2022/05/01 13:05:43;;;;;;;4.00;1.85;;;;;;;;;;4220317;33;20113;-62
2022/05/01 13:08:19;;;;;;;3.00;2.00;;;;;;;;;;4233471;33;20703;-63
2022/05/01 13:11:16;;;;;;;1.90;1.75;;;;;;;;;;4233493;33;20229;-63
2022/05/01 13:13:44;;;;;;;4.15;1.90;;;;;;;;;;4233346;33;20093;-62
2022/05/01 13:16:11;;;;;;;4.70;2.00;;;;;;;;;;4233636;33;20097;-62
2022/05/01 13:18:37;;;;;;;4.18;1.70;;;;;;;;;;4233397;33;20104;-62
2022/05/01 13:21:03;;;;;;;1.85;1.50;;;;;;;;;;4233474;33;20097;-62
2022/05/01 13:23:29;;;;;;;4.30;1.60;;;;;;;;;;4232655;33;20208;-62
2022/05/01 13:25:55;;;;;;;2.67;1.70;;;;;;;;;;4233576;33;20214;-63
2022/05/01 13:28:21;;;;;;;4.20;1.70;;;;;;;;;;4233286;33;20604;-63
2022/05/01 13:30:47;;;;;;;3.05;2.10;;;;;;;;;;4208916;33;20514;-63
2022/05/01 13:33:13;;;;;;;5.10;2.55;;;;;;;;;;4220186;33;20191;-64
2022/05/01 13:35:39;;;;;;;2.30;2.10;;;;;;;;;;4233261;33;20199;-63
2022/05/01 13:38:05;;;;;;;4.68;2.22;;;;;;;;;;4233297;33;20116;-63
2022/05/01 13:46:00;;;;;;;5.70;2.30;;;;;;;;;;4233052;33;20196;-62
2022/05/01 13:48:26;;;;;;;3.22;2.30;;;;;;;;;;4220168;33;20124;-63
2022/05/01 13:50:52;;;;;;;4.37;2.30;;;;;;;;;;4220313;33;20101;-61
2022/05/01 13:53:18;;;;;;;1.65;1.55;;;;;;;;;;4233148;33;20545;-61
2022/05/01 13:55:44;;;;;;;2.62;1.87;;;;;;;;;;4232983;33;20120;-61
2022/05/01 13:58:10;;;;;;;6.03;2.35;;;;;;;;;;4233084;33;20133;-61
2022/05/01 14:00:36;;;;;;;3.58;1.98;;;;;;;;;;4232893;33;20116;-62
2022/05/01 14:03:07;;;;;;;1.95;1.75;;;;;;;;;;4232977;33;20215;-61
2022/05/01 14:05:40;;;;;;;3.00;2.17;;;;;;;;;;4233004;33;20183;-62
2022/05/01 14:08:07;;;;;;;2.83;2.58;;;;;;;;;;4233242;33;20112;-61
2022/05/01 14:10:34;;;;;;;6.78;1.90;;;;;;;;;;4232944;33;20094;-60
2022/05/01 14:13:01;;;;;;;3.05;2.00;;;;;;;;;;4208349;33;20116;-61
2022/05/01 14:15:27;;;;;;;2.65;2.28;;;;;;;;;;4232899;33;20200;-63
2022/05/01 14:17:56;;;;;;;3.40;1.98;;;;;;;;;;4233238;33;20128;-62
2022/05/01 14:20:23;;;;;;;1.80;1.60;;;;;;;;;;4232858;33;20085;-60
2022/05/01 14:22:49;;;;;;;4.53;2.28;;;;;;;;;;4207955;33;20131;-62
2022/05/01 14:25:16;;;;;;;3.15;2.30;;;;;;;;;;4232989;33;20100;-61
2022/05/01 14:27:42;;;;;;;2.20;1.92;;;;;;;;;;4232768;33;20121;-61
2022/05/01 14:30:09;;;;;;;2.97;2.35;;;;;;;;;;4232741;33;20459;-61
2022/05/01 14:32:41;;;;;;;5.50;2.22;;;;;;;;;;4233063;33;20097;-61
2022/05/01 14:35:10;;;;;;;3.33;2.00;;;;;;;;;;4219465;33;20196;-61
2022/05/01 14:37:50;;;;;;;2.33;2.12;;;;;;;;;;4232619;33;20502;-61
2022/05/01 14:40:17;;;;;;;7.05;3.30;;;;;;;;;;4232602;33;20196;-61
2022/05/01 14:42:47;;;;;;;6.97;3.47;;;;;;;;;;4219813;33;20115;-61
2022/05/01 14:45:15;;;;;;;5.47;3.15;;;;;;;;;;4219889;33;20235;-63
2022/05/01 14:48:06;;;;;;;6.45;4.18;;;;;;;;;;4232914;33;20220;-61
2022/05/01 14:50:33;;;;;;;3.72;2.53;;;;;;;;;;4232923;33;20156;-59
2022/05/01 14:52:59;;;;;;;3.53;2.37;;;;;;;;;;4219734;33;20148;-59
2022/05/01 14:55:26;;;;;;;3.53;2.37;;;;;;;;;;4232801;33;20434;-60
2022/05/01 14:57:54;;;;;;;5.37;2.35;;;;;;;;;;4232693;33;20124;-61
2022/05/01 15:08:42;;;;;;;2.83;2.37;;;;;;;;;;4221390;33;20128;-61
2022/05/01 15:11:08;;;;;;;4.28;2.30;;;;;;;;;;4232356;33;20191;-60
2022/05/01 15:13:34;;;;;;;3.50;2.47;;;;;;;;;;4232538;33;20100;-60
2022/05/01 15:16:12;;;;;;;4.20;2.67;;;;;;;;;;4232424;33;20115;-60
2022/05/01 15:18:44;;;;;;;4.22;2.60;;;;;;;;;;4219869;33;20514;-61
2022/05/01 15:21:09;;;;;;;2.78;2.10;;;;;;;;;;4232314;33;20121;-61
2022/05/01 15:23:58;;;;;;;2.45;2.00;;;;;;;;;;4232492;33;20124;-62
2022/05/01 15:26:26;;;;;;;3.15;2.20;;;;;;;;;;4219550;33;20434;-61
2022/05/01 15:28:52;;;;;;;4.35;3.45;;;;;;;;;;4219400;33;20132;-62
2022/05/01 15:31:20;;;;;;;3.67;3.08;;;;;;;;;;4232157;33;20108;-61
2022/05/01 15:33:53;;;;;;;5.62;2.90;;;;;;;;;;4232268;33;20537;-62
2022/05/01 15:36:29;;;;;;;3.92;2.42;;;;;;;;;;4232194;33;20097;-61
2022/05/01 15:39:06;;;;;;;2.78;2.53;;;;;;;;;;4219336;33;20468;-61
2022/05/01 15:41:32;;;;;;;3.70;3.10;;;;;;;;;;4231955;33;20109;-61
2022/05/01 15:44:00;;;;;;;5.43;2.67;;;;;;;;;;4232135;33;20129;-61
2022/05/01 15:46:30;;;;;;;4.03;3.12;;;;;;;;;;4231529;33;20457;-61
2022/05/01 15:54:37;;;;;;;9.23;4.93;;;;;;;;;;4232063;33;20117;-61
2022/05/01 15:57:04;;;;;;;6.35;4.00;;;;;;;;;;4231998;33;20116;-62
2022/05/01 15:59:30;;;;;;;7.00;4.00;;;;;;;;;;4218851;33;20200;-63
2022/05/01 16:01:59;;;;;;;4.35;2.95;;;;;;;;;;4231695;33;20208;-63
2022/05/01 16:04:27;;;;;;;6.00;4.15;;;;;;;;;;4231970;33;20501;-62
2022/05/01 16:07:01;;;;;;;6.95;4.90;;;;;;;;;;4231860;33;20117;-64
2022/05/01 16:09:41;;;;;;;7.68;5.37;;;;;;;;;;4218866;33;20133;-62
2022/05/01 16:12:22;;;;;;;10.15;5.95;;;;;;;;;;4231707;33;20126;-61
2022/05/01 16:14:53;;;;;;;7.85;5.45;;;;;;;;;;4231998;33;20682;-63
2022/05/01 16:17:49;;;;;;;7.97;4.97;;;;;;;;;;4218752;33;20247;-63
2022/05/01 16:20:18;;;;;;;10.57;6.00;;;;;;;;;;4214845;33;20117;-64